sensor_id;sensor_type;location;lat;lon;timestamp;temperature;humidity
796;DHT22;381;48.770;9.188;2023-08-31T00:02:45;16.20;99.90
796;DHT22;381;48.770;9.188;2023-08-31T00:08:04;16.20;99.90
796;DHT22;381;48.770;9.188;2023-08-31T00:13:12;16.20;99.90
796;DHT22;381;48.770;9.188;2023-08-31T00:18:22;16.20;99.90
796;DHT22;381;48.770;9.188;2023-08-31T00:23:39;16.30;99.90
796;DHT22;381;48.770;9.188;2023-08-31T00:28:48;16.40;99.90
796;DHT22;381;48.770;9.188;2023-08-31T00:34:04;16.40;99.90
796;DHT22;381;48.770;9.188;2023-08-31T00:39:09;16.40;99.90
796;DHT22;381;48.770;9.188;2023-08-31T00:44:13;16.40;99.90
796;DHT22;381;48.770;9.188;2023-08-31T00:49:16;16.40;99.90
796;DHT22;381;48.770;9.188;2023-08-31T00:54:19;16.40;99.90
796;DHT22;381;48.770;9.188;2023-08-31T00:59:22;16.40;99.90
796;DHT22;381;48.770;9.188;2023-08-31T01:04:31;16.40;99.90
796;DHT22;381;48.770;9.188;2023-08-31T01:09:39;16.30;99.90
796;DHT22;381;48.770;9.188;2023-08-31T01:14:50;16.30;99.90
796;DHT22;381;48.770;9.188;2023-08-31T01:19:58;16.20;99.90
796;DHT22;381;48.770;9.188;2023-08-31T01:25:04;16.10;99.90
796;DHT22;381;48.770;9.188;2023-08-31T01:30:07;16.10;99.90
796;DHT22;381;48.770;9.188;2023-08-31T01:35:10;16.00;99.90
796;DHT22;381;48.770;9.188;2023-08-31T01:40:18;16.00;99.90
796;DHT22;381;48.770;9.188;2023-08-31T01:45:22;15.90;99.90
796;DHT22;381;48.770;9.188;2023-08-31T01:50:25;15.90;99.90
796;DHT22;381;48.770;9.188;2023-08-31T01:55:29;15.80;99.90
796;DHT22;381;48.770;9.188;2023-08-31T02:00:31;15.80;99.90
796;DHT22;381;48.770;9.188;2023-08-31T02:05:35;15.80;99.90
796;DHT22;381;48.770;9.188;2023-08-31T02:10:39;15.80;99.90
796;DHT22;381;48.770;9.188;2023-08-31T02:15:41;15.90;99.90
796;DHT22;381;48.770;9.188;2023-08-31T02:20:43;15.90;99.90
796;DHT22;381;48.770;9.188;2023-08-31T02:25:47;16.00;99.90
796;DHT22;381;48.770;9.188;2023-08-31T02:30:57;16.00;99.90
796;DHT22;381;48.770;9.188;2023-08-31T02:36:00;16.00;99.90
796;DHT22;381;48.770;9.188;2023-08-31T02:41:03;16.00;99.90
796;DHT22;381;48.770;9.188;2023-08-31T02:46:08;16.10;99.90
796;DHT22;381;48.770;9.188;2023-08-31T02:51:10;16.10;99.90
796;DHT22;381;48.770;9.188;2023-08-31T02:56:13;16.10;99.90
796;DHT22;381;48.770;9.188;2023-08-31T03:01:16;16.20;99.90
796;DHT22;381;48.770;9.188;2023-08-31T03:06:21;16.20;99.90
796;DHT22;381;48.770;9.188;2023-08-31T03:11:25;16.30;99.90
796;DHT22;381;48.770;9.188;2023-08-31T03:16:27;16.30;99.90
796;DHT22;381;48.770;9.188;2023-08-31T03:21:29;16.20;99.90
796;DHT22;381;48.770;9.188;2023-08-31T03:26:32;16.20;99.90
796;DHT22;381;48.770;9.188;2023-08-31T03:31:35;16.20;99.90
796;DHT22;381;48.770;9.188;2023-08-31T03:36:37;16.10;99.90
796;DHT22;381;48.770;9.188;2023-08-31T03:41:40;16.10;99.90
796;DHT22;381;48.770;9.188;2023-08-31T03:46:43;16.00;99.90
796;DHT22;381;48.770;9.188;2023-08-31T03:51:45;16.00;99.90
796;DHT22;381;48.770;9.188;2023-08-31T03:56:49;16.00;99.90
796;DHT22;381;48.770;9.188;2023-08-31T04:01:52;15.90;99.90
796;DHT22;381;48.770;9.188;2023-08-31T04:06:54;15.90;99.90
796;DHT22;381;48.770;9.188;2023-08-31T04:12:00;16.00;99.90
796;DHT22;381;48.770;9.188;2023-08-31T04:17:05;15.90;99.90
796;DHT22;381;48.770;9.188;2023-08-31T04:22:07;15.90;99.90
796;DHT22;381;48.770;9.188;2023-08-31T04:27:11;15.90;99.90
796;DHT22;381;48.770;9.188;2023-08-31T04:32:13;15.80;99.90
796;DHT22;381;48.770;9.188;2023-08-31T04:37:15;15.80;99.90
796;DHT22;381;48.770;9.188;2023-08-31T04:42:19;15.80;99.90
796;DHT22;381;48.770;9.188;2023-08-31T04:47:21;15.80;99.90
796;DHT22;381;48.770;9.188;2023-08-31T04:52:23;15.70;99.90
796;DHT22;381;48.770;9.188;2023-08-31T04:57:27;15.70;99.90
796;DHT22;381;48.770;9.188;2023-08-31T05:02:38;15.70;99.90
796;DHT22;381;48.770;9.188;2023-08-31T05:07:41;15.70;99.90
796;DHT22;381;48.770;9.188;2023-08-31T05:12:45;15.60;99.90
796;DHT22;381;48.770;9.188;2023-08-31T05:17:47;15.60;99.90
796;DHT22;381;48.770;9.188;2023-08-31T05:22:49;15.60;99.90
796;DHT22;381;48.770;9.188;2023-08-31T05:27:53;15.60;99.90
796;DHT22;381;48.770;9.188;2023-08-31T05:32:55;15.70;99.90
796;DHT22;381;48.770;9.188;2023-08-31T05:37:57;15.90;99.90
796;DHT22;381;48.770;9.188;2023-08-31T05:43:01;16.00;99.90
796;DHT22;381;48.770;9.188;2023-08-31T05:48:04;16.10;99.90
796;DHT22;381;48.770;9.188;2023-08-31T05:53:06;16.20;99.90
796;DHT22;381;48.770;9.188;2023-08-31T05:58:11;16.30;99.90
796;DHT22;381;48.770;9.188;2023-08-31T06:03:13;16.30;99.90
796;DHT22;381;48.770;9.188;2023-08-31T06:08:15;16.30;99.90
796;DHT22;381;48.770;9.188;2023-08-31T06:13:18;16.30;99.90
796;DHT22;381;48.770;9.188;2023-08-31T06:18:20;16.40;99.90
796;DHT22;381;48.770;9.188;2023-08-31T06:23:23;16.50;99.90
796;DHT22;381;48.770;9.188;2023-08-31T06:28:26;16.60;99.90
796;DHT22;381;48.770;9.188;2023-08-31T06:33:30;16.60;99.90
796;DHT22;381;48.770;9.188;2023-08-31T06:38:32;16.60;99.90
796;DHT22;381;48.770;9.188;2023-08-31T06:43:36;16.60;99.90
796;DHT22;381;48.770;9.188;2023-08-31T06:48:38;16.60;99.90
796;DHT22;381;48.770;9.188;2023-08-31T06:53:42;16.60;99.90
796;DHT22;381;48.770;9.188;2023-08-31T06:58:45;16.60;99.90
796;DHT22;381;48.770;9.188;2023-08-31T07:03:47;16.70;99.90
796;DHT22;381;48.770;9.188;2023-08-31T07:08:49;17.00;99.90
796;DHT22;381;48.770;9.188;2023-08-31T07:13:53;17.30;99.90
796;DHT22;381;48.770;9.188;2023-08-31T07:18:55;17.60;99.90
796;DHT22;381;48.770;9.188;2023-08-31T07:23:57;17.80;99.90
796;DHT22;381;48.770;9.188;2023-08-31T07:29:00;18.00;99.90
796;DHT22;381;48.770;9.188;2023-08-31T07:34:05;18.30;99.90
796;DHT22;381;48.770;9.188;2023-08-31T07:39:08;18.30;99.90
796;DHT22;381;48.770;9.188;2023-08-31T07:44:11;18.20;99.90
796;DHT22;381;48.770;9.188;2023-08-31T07:49:13;18.10;99.90
796;DHT22;381;48.770;9.188;2023-08-31T07:54:19;18.10;99.90
796;DHT22;381;48.770;9.188;2023-08-31T07:59:23;18.00;99.90
796;DHT22;381;48.770;9.188;2023-08-31T08:04:25;18.00;99.90
796;DHT22;381;48.770;9.188;2023-08-31T08:09:28;18.10;99.90
796;DHT22;381;48.770;9.188;2023-08-31T08:14:32;18.10;99.90
796;DHT22;381;48.770;9.188;2023-08-31T08:19:34;18.20;99.90
796;DHT22;381;48.770;9.188;2023-08-31T08:24:36;18.30;99.90
796;DHT22;381;48.770;9.188;2023-08-31T08:29:40;18.80;99.90
796;DHT22;381;48.770;9.188;2023-08-31T08:34:42;19.30;99.90
796;DHT22;381;48.770;9.188;2023-08-31T08:39:48;19.70;99.90
796;DHT22;381;48.770;9.188;2023-08-31T08:44:51;20.10;99.90
796;DHT22;381;48.770;9.188;2023-08-31T08:49:54;20.20;99.90
796;DHT22;381;48.770;9.188;2023-08-31T08:54:56;20.10;96.70
796;DHT22;381;48.770;9.188;2023-08-31T09:00:00;19.90;98.50
796;DHT22;381;48.770;9.188;2023-08-31T09:05:04;19.80;99.70
796;DHT22;381;48.770;9.188;2023-08-31T09:10:07;19.80;99.40
796;DHT22;381;48.770;9.188;2023-08-31T09:15:10;19.80;98.10
796;DHT22;381;48.770;9.188;2023-08-31T09:20:13;19.80;98.60
796;DHT22;381;48.770;9.188;2023-08-31T09:25:15;19.90;99.70
796;DHT22;381;48.770;9.188;2023-08-31T09:30:18;20.10;99.90
796;DHT22;381;48.770;9.188;2023-08-31T09:35:20;20.10;99.70
796;DHT22;381;48.770;9.188;2023-08-31T09:40:22;20.10;99.90
796;DHT22;381;48.770;9.188;2023-08-31T09:45:30;20.10;98.00
796;DHT22;381;48.770;9.188;2023-08-31T09:50:33;20.00;98.10
796;DHT22;381;48.770;9.188;2023-08-31T09:55:39;20.10;95.70
796;DHT22;381;48.770;9.188;2023-08-31T10:00:43;20.50;98.50
796;DHT22;381;48.770;9.188;2023-08-31T10:05:46;21.00;96.60
796;DHT22;381;48.770;9.188;2023-08-31T10:10:48;21.50;92.50
796;DHT22;381;48.770;9.188;2023-08-31T10:15:52;21.40;94.10
796;DHT22;381;48.770;9.188;2023-08-31T10:20:55;21.30;90.80
796;DHT22;381;48.770;9.188;2023-08-31T10:26:03;21.10;92.30
796;DHT22;381;48.770;9.188;2023-08-31T10:31:08;21.10;93.10
796;DHT22;381;48.770;9.188;2023-08-31T10:36:12;21.10;92.60
796;DHT22;381;48.770;9.188;2023-08-31T10:41:22;21.10;93.50
796;DHT22;381;48.770;9.188;2023-08-31T10:46:28;21.10;93.20
796;DHT22;381;48.770;9.188;2023-08-31T10:51:32;21.10;93.50
796;DHT22;381;48.770;9.188;2023-08-31T10:56:36;21.10;93.60
796;DHT22;381;48.770;9.188;2023-08-31T11:01:55;21.10;94.80
796;DHT22;381;48.770;9.188;2023-08-31T11:07:14;21.10;91.00
796;DHT22;381;48.770;9.188;2023-08-31T11:12:16;21.00;91.50
796;DHT22;381;48.770;9.188;2023-08-31T11:17:20;20.80;93.30
796;DHT22;381;48.770;9.188;2023-08-31T11:22:22;20.70;93.40
796;DHT22;381;48.770;9.188;2023-08-31T11:27:25;20.70;94.30
796;DHT22;381;48.770;9.188;2023-08-31T11:32:29;20.70;94.00
796;DHT22;381;48.770;9.188;2023-08-31T11:37:31;20.80;93.60
796;DHT22;381;48.770;9.188;2023-08-31T11:42:33;20.90;93.70
796;DHT22;381;48.770;9.188;2023-08-31T11:47:37;21.00;94.40
796;DHT22;381;48.770;9.188;2023-08-31T11:52:40;21.10;95.10
796;DHT22;381;48.770;9.188;2023-08-31T11:57:48;21.20;94.10
796;DHT22;381;48.770;9.188;2023-08-31T12:02:58;21.20;95.70
796;DHT22;381;48.770;9.188;2023-08-31T12:08:01;21.30;94.60
796;DHT22;381;48.770;9.188;2023-08-31T12:13:09;21.50;94.10
796;DHT22;381;48.770;9.188;2023-08-31T12:18:13;21.50;93.30
796;DHT22;381;48.770;9.188;2023-08-31T12:23:16;21.50;92.40
796;DHT22;381;48.770;9.188;2023-08-31T12:28:18;21.50;93.00
796;DHT22;381;48.770;9.188;2023-08-31T12:33:22;21.50;94.10
796;DHT22;381;48.770;9.188;2023-08-31T12:38:25;21.50;93.20
796;DHT22;381;48.770;9.188;2023-08-31T12:43:27;21.50;94.00
796;DHT22;381;48.770;9.188;2023-08-31T12:48:31;21.20;93.50
796;DHT22;381;48.770;9.188;2023-08-31T12:53:37;21.20;94.80
796;DHT22;381;48.770;9.188;2023-08-31T12:58:39;21.20;92.30
796;DHT22;381;48.770;9.188;2023-08-31T13:03:43;21.20;95.00
796;DHT22;381;48.770;9.188;2023-08-31T13:08:45;21.20;94.20
796;DHT22;381;48.770;9.188;2023-08-31T13:13:47;21.20;92.80
796;DHT22;381;48.770;9.188;2023-08-31T13:18:50;21.10;93.60
796;DHT22;381;48.770;9.188;2023-08-31T13:23:52;21.10;92.00
796;DHT22;381;48.770;9.188;2023-08-31T13:28:54;21.10;94.10
796;DHT22;381;48.770;9.188;2023-08-31T13:33:58;21.20;94.20
796;DHT22;381;48.770;9.188;2023-08-31T13:39:00;21.20;93.60
796;DHT22;381;48.770;9.188;2023-08-31T13:44:04;21.00;94.50
796;DHT22;381;48.770;9.188;2023-08-31T13:49:07;20.80;95.00
796;DHT22;381;48.770;9.188;2023-08-31T13:54:09;20.70;93.70
796;DHT22;381;48.770;9.188;2023-08-31T13:59:11;20.60;94.90
796;DHT22;381;48.770;9.188;2023-08-31T14:04:15;20.70;95.20
796;DHT22;381;48.770;9.188;2023-08-31T14:09:17;20.70;95.10
796;DHT22;381;48.770;9.188;2023-08-31T14:14:20;20.70;93.60
796;DHT22;381;48.770;9.188;2023-08-31T14:19:24;20.60;94.60
796;DHT22;381;48.770;9.188;2023-08-31T14:24:26;20.50;94.40
796;DHT22;381;48.770;9.188;2023-08-31T14:29:28;20.40;95.80
796;DHT22;381;48.770;9.188;2023-08-31T14:34:32;20.40;95.50
796;DHT22;381;48.770;9.188;2023-08-31T14:39:34;20.30;96.20
796;DHT22;381;48.770;9.188;2023-08-31T14:44:36;20.30;96.20
796;DHT22;381;48.770;9.188;2023-08-31T14:49:40;20.30;96.30
796;DHT22;381;48.770;9.188;2023-08-31T14:54:42;20.30;97.90
796;DHT22;381;48.770;9.188;2023-08-31T14:59:44;20.30;96.00
796;DHT22;381;48.770;9.188;2023-08-31T15:04:48;20.30;96.30
796;DHT22;381;48.770;9.188;2023-08-31T15:09:51;20.30;94.60
796;DHT22;381;48.770;9.188;2023-08-31T15:14:54;20.40;97.00
796;DHT22;381;48.770;9.188;2023-08-31T15:19:57;20.50;97.70
796;DHT22;381;48.770;9.188;2023-08-31T15:24:59;20.40;98.30
796;DHT22;381;48.770;9.188;2023-08-31T15:30:02;20.40;96.40
796;DHT22;381;48.770;9.188;2023-08-31T15:35:07;20.40;97.70
796;DHT22;381;48.770;9.188;2023-08-31T15:40:10;20.50;98.50
796;DHT22;381;48.770;9.188;2023-08-31T15:45:12;20.60;98.00
796;DHT22;381;48.770;9.188;2023-08-31T15:50:16;20.70;97.80
796;DHT22;381;48.770;9.188;2023-08-31T15:55:18;20.70;97.10
796;DHT22;381;48.770;9.188;2023-08-31T16:00:20;20.50;96.70
796;DHT22;381;48.770;9.188;2023-08-31T16:05:25;20.40;97.10
796;DHT22;381;48.770;9.188;2023-08-31T16:10:27;20.30;97.20
796;DHT22;381;48.770;9.188;2023-08-31T16:15:29;20.20;97.90
796;DHT22;381;48.770;9.188;2023-08-31T16:20:32;20.20;96.80
796;DHT22;381;48.770;9.188;2023-08-31T16:25:37;20.20;98.30
796;DHT22;381;48.770;9.188;2023-08-31T16:30:39;20.20;98.90
796;DHT22;381;48.770;9.188;2023-08-31T16:35:42;20.20;99.00
796;DHT22;381;48.770;9.188;2023-08-31T16:40:44;20.20;97.70
796;DHT22;381;48.770;9.188;2023-08-31T16:45:47;20.20;96.30
796;DHT22;381;48.770;9.188;2023-08-31T16:50:50;20.20;98.60
796;DHT22;381;48.770;9.188;2023-08-31T16:55:52;20.20;99.40
796;DHT22;381;48.770;9.188;2023-08-31T17:00:54;20.10;99.90
796;DHT22;381;48.770;9.188;2023-08-31T17:06:03;20.10;99.90
796;DHT22;381;48.770;9.188;2023-08-31T17:11:05;20.00;99.90
796;DHT22;381;48.770;9.188;2023-08-31T17:16:11;19.90;99.90
796;DHT22;381;48.770;9.188;2023-08-31T17:21:14;19.90;99.90
796;DHT22;381;48.770;9.188;2023-08-31T17:26:20;19.80;99.90
796;DHT22;381;48.770;9.188;2023-08-31T17:31:22;19.70;99.90
796;DHT22;381;48.770;9.188;2023-08-31T17:36:26;19.70;99.90
796;DHT22;381;48.770;9.188;2023-08-31T17:41:28;19.60;99.90
796;DHT22;381;48.770;9.188;2023-08-31T17:46:30;19.50;99.90
796;DHT22;381;48.770;9.188;2023-08-31T17:51:34;19.40;99.90
796;DHT22;381;48.770;9.188;2023-08-31T17:56:36;19.30;99.90
796;DHT22;381;48.770;9.188;2023-08-31T18:01:38;19.20;99.90
796;DHT22;381;48.770;9.188;2023-08-31T18:06:44;19.20;99.90
796;DHT22;381;48.770;9.188;2023-08-31T18:11:46;19.20;99.90
796;DHT22;381;48.770;9.188;2023-08-31T18:16:48;19.10;99.90
796;DHT22;381;48.770;9.188;2023-08-31T18:21:51;19.00;99.90
796;DHT22;381;48.770;9.188;2023-08-31T18:26:54;19.00;99.90
796;DHT22;381;48.770;9.188;2023-08-31T18:31:56;18.90;99.90
796;DHT22;381;48.770;9.188;2023-08-31T18:36:59;18.90;99.90
796;DHT22;381;48.770;9.188;2023-08-31T18:42:01;18.90;99.90
796;DHT22;381;48.770;9.188;2023-08-31T18:47:04;18.80;99.90
796;DHT22;381;48.770;9.188;2023-08-31T18:52:07;18.80;99.90
796;DHT22;381;48.770;9.188;2023-08-31T18:57:10;18.80;99.90
796;DHT22;381;48.770;9.188;2023-08-31T19:02:12;18.80;99.90
796;DHT22;381;48.770;9.188;2023-08-31T19:07:16;18.80;99.90
796;DHT22;381;48.770;9.188;2023-08-31T19:12:18;18.70;99.90
796;DHT22;381;48.770;9.188;2023-08-31T19:17:20;18.70;99.90
796;DHT22;381;48.770;9.188;2023-08-31T19:22:24;18.70;99.90
796;DHT22;381;48.770;9.188;2023-08-31T19:27:27;18.70;99.90
796;DHT22;381;48.770;9.188;2023-08-31T19:32:29;18.70;99.90
796;DHT22;381;48.770;9.188;2023-08-31T19:37:33;18.70;99.90
796;DHT22;381;48.770;9.188;2023-08-31T19:42:35;18.80;99.90
796;DHT22;381;48.770;9.188;2023-08-31T19:47:37;18.80;99.90
796;DHT22;381;48.770;9.188;2023-08-31T19:52:41;18.80;99.90
796;DHT22;381;48.770;9.188;2023-08-31T19:57:45;18.80;99.90
796;DHT22;381;48.770;9.188;2023-08-31T20:02:48;18.90;99.90
796;DHT22;381;48.770;9.188;2023-08-31T20:07:52;18.90;99.90
796;DHT22;381;48.770;9.188;2023-08-31T20:12:54;18.90;99.90
796;DHT22;381;48.770;9.188;2023-08-31T20:17:57;18.80;99.90
796;DHT22;381;48.770;9.188;2023-08-31T20:23:01;18.80;99.90
796;DHT22;381;48.770;9.188;2023-08-31T20:28:05;18.80;99.90
796;DHT22;381;48.770;9.188;2023-08-31T20:33:07;18.70;99.90
796;DHT22;381;48.770;9.188;2023-08-31T20:38:13;18.70;99.90
796;DHT22;381;48.770;9.188;2023-08-31T20:43:15;18.70;99.90
796;DHT22;381;48.770;9.188;2023-08-31T20:48:17;18.60;99.90
796;DHT22;381;48.770;9.188;2023-08-31T20:53:21;18.50;99.90
796;DHT22;381;48.770;9.188;2023-08-31T20:58:23;18.50;99.90
796;DHT22;381;48.770;9.188;2023-08-31T21:03:25;18.50;99.90
796;DHT22;381;48.770;9.188;2023-08-31T21:08:28;18.50;99.90
796;DHT22;381;48.770;9.188;2023-08-31T21:13:30;18.40;99.90
796;DHT22;381;48.770;9.188;2023-08-31T21:18:36;18.40;99.90
796;DHT22;381;48.770;9.188;2023-08-31T21:23:40;18.40;99.90
796;DHT22;381;48.770;9.188;2023-08-31T21:28:42;18.40;99.90
796;DHT22;381;48.770;9.188;2023-08-31T21:33:44;18.40;99.90
796;DHT22;381;48.770;9.188;2023-08-31T21:38:47;18.40;99.90
796;DHT22;381;48.770;9.188;2023-08-31T21:43:50;18.40;99.90
796;DHT22;381;48.770;9.188;2023-08-31T21:48:52;18.40;99.90
796;DHT22;381;48.770;9.188;2023-08-31T21:53:55;18.40;99.90
796;DHT22;381;48.770;9.188;2023-08-31T21:58:58;18.40;99.90
796;DHT22;381;48.770;9.188;2023-08-31T22:04:00;18.40;99.90
796;DHT22;381;48.770;9.188;2023-08-31T22:09:04;18.40;99.90
796;DHT22;381;48.770;9.188;2023-08-31T22:14:07;18.40;99.90
796;DHT22;381;48.770;9.188;2023-08-31T22:19:11;18.40;99.90
796;DHT22;381;48.770;9.188;2023-08-31T22:24:14;18.40;99.90
796;DHT22;381;48.770;9.188;2023-08-31T22:29:17;18.40;99.90
796;DHT22;381;48.770;9.188;2023-08-31T22:34:19;18.40;99.90
796;DHT22;381;48.770;9.188;2023-08-31T22:39:22;18.40;99.90
796;DHT22;381;48.770;9.188;2023-08-31T22:44:25;18.30;99.90
796;DHT22;381;48.770;9.188;2023-08-31T22:49:27;18.30;99.90
796;DHT22;381;48.770;9.188;2023-08-31T22:54:30;18.30;99.90
796;DHT22;381;48.770;9.188;2023-08-31T22:59:32;18.30;99.90
796;DHT22;381;48.770;9.188;2023-08-31T23:04:34;18.30;99.90
796;DHT22;381;48.770;9.188;2023-08-31T23:09:38;18.40;99.90
796;DHT22;381;48.770;9.188;2023-08-31T23:14:40;18.40;99.90
796;DHT22;381;48.770;9.188;2023-08-31T23:19:45;18.40;99.90
796;DHT22;381;48.770;9.188;2023-08-31T23:24:49;18.40;99.90
796;DHT22;381;48.770;9.188;2023-08-31T23:29:52;18.50;99.90
796;DHT22;381;48.770;9.188;2023-08-31T23:34:54;18.50;99.90
796;DHT22;381;48.770;9.188;2023-08-31T23:39:58;18.50;99.90
796;DHT22;381;48.770;9.188;2023-08-31T23:45:00;18.50;99.90
796;DHT22;381;48.770;9.188;2023-08-31T23:50:02;18.50;99.90
796;DHT22;381;48.770;9.188;2023-08-31T23:55:07;18.50;99.90
